sensor_id;sensor_type;location;lat;lon;timestamp;P1;durP1;ratioP1;P2;durP2;ratioP2
51525;SDS011;37611;51.794;21.590;2023-05-02T00:02:20;13.80;;;6.30;;
51525;SDS011;37611;51.794;21.590;2023-05-02T00:06:22;13.80;;;6.60;;
51525;SDS011;37611;51.794;21.590;2023-05-02T00:10:24;10.20;;;5.80;;
51525;SDS011;37611;51.794;21.590;2023-05-02T00:14:26;8.40;;;4.90;;
51525;SDS011;37611;51.794;21.590;2023-05-02T00:18:28;9.40;;;5.80;;
51525;SDS011;37611;51.794;21.590;2023-05-02T00:22:29;10.00;;;6.40;;
51525;SDS011;37611;51.794;21.590;2023-05-02T00:26:31;11.90;;;6.00;;
51525;SDS011;37611;51.794;21.590;2023-05-02T00:30:35;9.00;;;5.80;;
51525;SDS011;37611;51.794;21.590;2023-05-02T00:34:37;11.00;;;5.80;;
51525;SDS011;37611;51.794;21.590;2023-05-02T00:38:39;10.40;;;6.00;;
51525;SDS011;37611;51.794;21.590;2023-05-02T00:42:41;10.20;;;5.70;;
51525;SDS011;37611;51.794;21.590;2023-05-02T00:46:42;9.10;;;5.30;;
51525;SDS011;37611;51.794;21.590;2023-05-02T00:50:44;9.80;;;6.00;;
51525;SDS011;37611;51.794;21.590;2023-05-02T00:54:46;11.70;;;6.80;;
51525;SDS011;37611;51.794;21.590;2023-05-02T00:58:48;12.00;;;6.70;;
51525;SDS011;37611;51.794;21.590;2023-05-02T01:02:52;11.70;;;6.70;;
51525;SDS011;37611;51.794;21.590;2023-05-02T01:12:13;13.50;;;6.20;;
51525;SDS011;37611;51.794;21.590;2023-05-02T01:16:11;9.70;;;5.40;;
51525;SDS011;37611;51.794;21.590;2023-05-02T01:20:18;12.50;;;5.30;;
51525;SDS011;37611;51.794;21.590;2023-05-02T01:24:24;11.40;;;5.20;;
51525;SDS011;37611;51.794;21.590;2023-05-02T01:32:54;7.90;;;4.40;;
51525;SDS011;37611;51.794;21.590;2023-05-02T01:36:59;10.20;;;4.40;;
51525;SDS011;37611;51.794;21.590;2023-05-02T01:41:02;9.10;;;4.60;;
51525;SDS011;37611;51.794;21.590;2023-05-02T01:45:08;10.10;;;4.10;;
51525;SDS011;37611;51.794;21.590;2023-05-02T01:49:12;6.70;;;4.10;;
51525;SDS011;37611;51.794;21.590;2023-05-02T01:53:15;12.40;;;4.60;;
51525;SDS011;37611;51.794;21.590;2023-05-02T01:57:18;8.10;;;4.10;;
51525;SDS011;37611;51.794;21.590;2023-05-02T02:01:20;7.80;;;4.20;;
51525;SDS011;37611;51.794;21.590;2023-05-02T02:05:25;8.30;;;4.50;;
51525;SDS011;37611;51.794;21.590;2023-05-02T02:09:29;9.50;;;3.90;;
51525;SDS011;37611;51.794;21.590;2023-05-02T02:13:36;8.50;;;4.40;;
51525;SDS011;37611;51.794;21.590;2023-05-02T02:17:47;7.60;;;3.80;;
51525;SDS011;37611;51.794;21.590;2023-05-02T02:21:55;8.30;;;5.00;;
51525;SDS011;37611;51.794;21.590;2023-05-02T02:25:58;6.30;;;4.10;;
51525;SDS011;37611;51.794;21.590;2023-05-02T02:30:03;15.10;;;4.20;;
51525;SDS011;37611;51.794;21.590;2023-05-02T02:34:06;7.40;;;4.20;;
51525;SDS011;37611;51.794;21.590;2023-05-02T02:38:51;8.50;;;4.20;;
51525;SDS011;37611;51.794;21.590;2023-05-02T02:43:02;10.40;;;5.10;;
51525;SDS011;37611;51.794;21.590;2023-05-02T02:47:20;7.00;;;4.20;;
51525;SDS011;37611;51.794;21.590;2023-05-02T02:56:26;6.60;;;4.10;;
51525;SDS011;37611;51.794;21.590;2023-05-02T03:00:30;7.60;;;3.70;;
51525;SDS011;37611;51.794;21.590;2023-05-02T03:04:34;9.70;;;4.50;;
51525;SDS011;37611;51.794;21.590;2023-05-02T03:08:38;6.70;;;3.90;;
51525;SDS011;37611;51.794;21.590;2023-05-02T03:12:41;9.80;;;4.20;;
51525;SDS011;37611;51.794;21.590;2023-05-02T03:16:46;7.70;;;4.30;;
51525;SDS011;37611;51.794;21.590;2023-05-02T03:20:48;7.10;;;4.30;;
51525;SDS011;37611;51.794;21.590;2023-05-02T03:24:50;11.00;;;4.80;;
51525;SDS011;37611;51.794;21.590;2023-05-02T03:28:52;7.40;;;4.10;;
51525;SDS011;37611;51.794;21.590;2023-05-02T03:32:54;10.80;;;4.70;;
51525;SDS011;37611;51.794;21.590;2023-05-02T03:36:56;8.00;;;5.10;;
51525;SDS011;37611;51.794;21.590;2023-05-02T03:40:58;9.30;;;4.70;;
51525;SDS011;37611;51.794;21.590;2023-05-02T03:45:01;8.20;;;4.50;;
51525;SDS011;37611;51.794;21.590;2023-05-02T03:49:02;6.30;;;4.40;;
51525;SDS011;37611;51.794;21.590;2023-05-02T03:53:04;9.50;;;4.30;;
51525;SDS011;37611;51.794;21.590;2023-05-02T03:57:06;10.30;;;4.80;;
51525;SDS011;37611;51.794;21.590;2023-05-02T04:01:13;8.60;;;4.20;;
51525;SDS011;37611;51.794;21.590;2023-05-02T04:05:15;9.00;;;4.50;;
51525;SDS011;37611;51.794;21.590;2023-05-02T04:09:17;7.70;;;4.50;;
51525;SDS011;37611;51.794;21.590;2023-05-02T04:13:25;9.80;;;4.40;;
51525;SDS011;37611;51.794;21.590;2023-05-02T04:17:27;6.30;;;4.50;;
51525;SDS011;37611;51.794;21.590;2023-05-02T04:21:28;10.10;;;4.40;;
51525;SDS011;37611;51.794;21.590;2023-05-02T04:25:30;11.10;;;4.90;;
51525;SDS011;37611;51.794;21.590;2023-05-02T04:29:32;9.30;;;4.40;;
51525;SDS011;37611;51.794;21.590;2023-05-02T04:33:34;8.00;;;4.30;;
51525;SDS011;37611;51.794;21.590;2023-05-02T04:37:36;10.30;;;4.20;;
51525;SDS011;37611;51.794;21.590;2023-05-02T04:41:38;12.50;;;5.80;;
51525;SDS011;37611;51.794;21.590;2023-05-02T04:45:41;10.40;;;5.20;;
51525;SDS011;37611;51.794;21.590;2023-05-02T04:49:42;9.90;;;4.30;;
51525;SDS011;37611;51.794;21.590;2023-05-02T04:53:44;6.50;;;4.30;;
51525;SDS011;37611;51.794;21.590;2023-05-02T04:57:46;7.60;;;4.50;;
51525;SDS011;37611;51.794;21.590;2023-05-02T05:01:49;6.30;;;4.30;;
51525;SDS011;37611;51.794;21.590;2023-05-02T05:05:51;8.80;;;4.40;;
51525;SDS011;37611;51.794;21.590;2023-05-02T05:09:52;8.70;;;4.30;;
51525;SDS011;37611;51.794;21.590;2023-05-02T05:13:55;8.50;;;4.50;;
51525;SDS011;37611;51.794;21.590;2023-05-02T05:17:57;6.90;;;4.10;;
51525;SDS011;37611;51.794;21.590;2023-05-02T05:21:59;7.70;;;4.50;;
51525;SDS011;37611;51.794;21.590;2023-05-02T05:26:07;7.80;;;4.50;;
51525;SDS011;37611;51.794;21.590;2023-05-02T05:30:13;10.50;;;4.70;;
51525;SDS011;37611;51.794;21.590;2023-05-02T05:34:15;9.80;;;4.80;;
51525;SDS011;37611;51.794;21.590;2023-05-02T05:38:16;10.50;;;4.80;;
51525;SDS011;37611;51.794;21.590;2023-05-02T05:42:18;5.90;;;3.90;;
51525;SDS011;37611;51.794;21.590;2023-05-02T05:46:20;8.30;;;4.50;;
51525;SDS011;37611;51.794;21.590;2023-05-02T05:50:22;6.90;;;4.40;;
51525;SDS011;37611;51.794;21.590;2023-05-02T05:54:23;11.90;;;5.00;;
51525;SDS011;37611;51.794;21.590;2023-05-02T05:58:25;8.20;;;5.50;;
51525;SDS011;37611;51.794;21.590;2023-05-02T06:02:27;8.10;;;4.30;;
51525;SDS011;37611;51.794;21.590;2023-05-02T06:06:33;7.10;;;4.80;;
51525;SDS011;37611;51.794;21.590;2023-05-02T06:10:35;8.90;;;5.70;;
51525;SDS011;37611;51.794;21.590;2023-05-02T06:14:37;12.30;;;5.10;;
51525;SDS011;37611;51.794;21.590;2023-05-02T06:18:38;6.50;;;4.70;;
51525;SDS011;37611;51.794;21.590;2023-05-02T06:22:40;7.00;;;5.30;;
51525;SDS011;37611;51.794;21.590;2023-05-02T06:26:42;6.90;;;4.90;;
51525;SDS011;37611;51.794;21.590;2023-05-02T06:30:44;8.60;;;5.00;;
51525;SDS011;37611;51.794;21.590;2023-05-02T06:34:46;8.00;;;5.30;;
51525;SDS011;37611;51.794;21.590;2023-05-02T06:38:47;7.60;;;4.20;;
51525;SDS011;37611;51.794;21.590;2023-05-02T06:42:49;8.20;;;5.00;;
51525;SDS011;37611;51.794;21.590;2023-05-02T06:46:51;6.10;;;4.20;;
51525;SDS011;37611;51.794;21.590;2023-05-02T06:50:52;6.60;;;4.40;;
51525;SDS011;37611;51.794;21.590;2023-05-02T06:54:54;9.00;;;4.20;;
51525;SDS011;37611;51.794;21.590;2023-05-02T06:58:56;7.90;;;4.60;;
51525;SDS011;37611;51.794;21.590;2023-05-02T07:02:58;8.30;;;4.20;;
51525;SDS011;37611;51.794;21.590;2023-05-02T07:07:00;5.30;;;3.90;;
51525;SDS011;37611;51.794;21.590;2023-05-02T07:11:01;7.00;;;4.50;;
51525;SDS011;37611;51.794;21.590;2023-05-02T07:15:06;6.70;;;4.20;;
51525;SDS011;37611;51.794;21.590;2023-05-02T07:19:09;8.00;;;4.90;;
51525;SDS011;37611;51.794;21.590;2023-05-02T07:23:10;8.10;;;4.30;;
51525;SDS011;37611;51.794;21.590;2023-05-02T07:27:12;7.00;;;3.90;;
51525;SDS011;37611;51.794;21.590;2023-05-02T07:31:14;7.10;;;4.00;;
51525;SDS011;37611;51.794;21.590;2023-05-02T07:35:16;6.60;;;4.00;;
51525;SDS011;37611;51.794;21.590;2023-05-02T07:39:18;8.80;;;3.80;;
51525;SDS011;37611;51.794;21.590;2023-05-02T07:43:19;8.90;;;4.40;;
51525;SDS011;37611;51.794;21.590;2023-05-02T07:47:21;5.00;;;3.60;;
51525;SDS011;37611;51.794;21.590;2023-05-02T07:51:23;5.60;;;3.30;;
51525;SDS011;37611;51.794;21.590;2023-05-02T07:55:26;6.60;;;3.70;;
51525;SDS011;37611;51.794;21.590;2023-05-02T07:59:29;7.40;;;3.70;;
51525;SDS011;37611;51.794;21.590;2023-05-02T08:03:31;4.90;;;3.60;;
51525;SDS011;37611;51.794;21.590;2023-05-02T08:07:33;5.20;;;3.60;;
51525;SDS011;37611;51.794;21.590;2023-05-02T08:11:37;7.60;;;3.60;;
51525;SDS011;37611;51.794;21.590;2023-05-02T08:15:39;6.90;;;3.40;;
51525;SDS011;37611;51.794;21.590;2023-05-02T08:19:41;4.60;;;3.00;;
51525;SDS011;37611;51.794;21.590;2023-05-02T08:23:43;6.00;;;2.10;;
51525;SDS011;37611;51.794;21.590;2023-05-02T08:27:46;5.10;;;2.30;;
51525;SDS011;37611;51.794;21.590;2023-05-02T08:31:48;4.10;;;2.10;;
51525;SDS011;37611;51.794;21.590;2023-05-02T08:35:50;4.50;;;2.40;;
51525;SDS011;37611;51.794;21.590;2023-05-02T08:39:51;4.50;;;2.20;;
51525;SDS011;37611;51.794;21.590;2023-05-02T08:43:53;8.50;;;2.40;;
51525;SDS011;37611;51.794;21.590;2023-05-02T08:47:57;3.80;;;2.60;;
51525;SDS011;37611;51.794;21.590;2023-05-02T08:52:00;3.80;;;2.00;;
51525;SDS011;37611;51.794;21.590;2023-05-02T08:56:02;3.20;;;2.10;;
51525;SDS011;37611;51.794;21.590;2023-05-02T09:00:05;6.60;;;1.90;;
51525;SDS011;37611;51.794;21.590;2023-05-02T09:04:09;4.00;;;2.20;;
51525;SDS011;37611;51.794;21.590;2023-05-02T09:08:11;2.80;;;2.10;;
51525;SDS011;37611;51.794;21.590;2023-05-02T09:12:13;4.60;;;1.90;;
51525;SDS011;37611;51.794;21.590;2023-05-02T09:16:21;5.20;;;1.80;;
51525;SDS011;37611;51.794;21.590;2023-05-02T09:20:26;3.10;;;2.00;;
51525;SDS011;37611;51.794;21.590;2023-05-02T09:24:27;3.70;;;1.90;;
51525;SDS011;37611;51.794;21.590;2023-05-02T09:29:03;4.10;;;1.90;;
51525;SDS011;37611;51.794;21.590;2023-05-02T09:32:59;3.70;;;2.10;;
51525;SDS011;37611;51.794;21.590;2023-05-02T09:37:01;4.10;;;3.10;;
51525;SDS011;37611;51.794;21.590;2023-05-02T09:41:05;4.50;;;2.00;;
51525;SDS011;37611;51.794;21.590;2023-05-02T09:45:07;5.20;;;2.10;;
51525;SDS011;37611;51.794;21.590;2023-05-02T09:49:10;4.50;;;2.10;;
51525;SDS011;37611;51.794;21.590;2023-05-02T09:53:11;3.20;;;2.10;;
51525;SDS011;37611;51.794;21.590;2023-05-02T09:57:13;5.00;;;2.10;;
51525;SDS011;37611;51.794;21.590;2023-05-02T10:01:18;5.20;;;2.40;;
51525;SDS011;37611;51.794;21.590;2023-05-02T10:05:20;2.90;;;1.90;;
51525;SDS011;37611;51.794;21.590;2023-05-02T10:09:22;5.50;;;2.40;;
51525;SDS011;37611;51.794;21.590;2023-05-02T10:13:24;2.90;;;2.50;;
51525;SDS011;37611;51.794;21.590;2023-05-02T10:17:34;5.00;;;2.30;;
51525;SDS011;37611;51.794;21.590;2023-05-02T10:21:42;3.70;;;2.30;;
51525;SDS011;37611;51.794;21.590;2023-05-02T10:25:44;4.40;;;2.00;;
51525;SDS011;37611;51.794;21.590;2023-05-02T10:29:46;4.60;;;2.70;;
51525;SDS011;37611;51.794;21.590;2023-05-02T10:33:51;5.30;;;3.20;;
51525;SDS011;37611;51.794;21.590;2023-05-02T10:37:56;5.00;;;2.10;;
51525;SDS011;37611;51.794;21.590;2023-05-02T10:42:01;5.10;;;2.80;;
51525;SDS011;37611;51.794;21.590;2023-05-02T10:46:28;2.90;;;2.20;;
51525;SDS011;37611;51.794;21.590;2023-05-02T10:50:43;6.30;;;4.60;;
51525;SDS011;37611;51.794;21.590;2023-05-02T10:54:49;5.80;;;3.10;;
51525;SDS011;37611;51.794;21.590;2023-05-02T10:58:52;3.90;;;2.70;;
51525;SDS011;37611;51.794;21.590;2023-05-02T11:02:53;6.90;;;3.90;;
51525;SDS011;37611;51.794;21.590;2023-05-02T11:11:07;4.80;;;2.70;;
51525;SDS011;37611;51.794;21.590;2023-05-02T11:23:44;4.90;;;2.10;;
51525;SDS011;37611;51.794;21.590;2023-05-02T11:27:47;4.60;;;2.30;;
51525;SDS011;37611;51.794;21.590;2023-05-02T11:31:52;6.20;;;2.60;;
51525;SDS011;37611;51.794;21.590;2023-05-02T11:35:55;5.10;;;2.30;;
51525;SDS011;37611;51.794;21.590;2023-05-02T11:40:12;3.90;;;3.00;;
51525;SDS011;37611;51.794;21.590;2023-05-02T11:44:14;4.70;;;3.20;;
51525;SDS011;37611;51.794;21.590;2023-05-02T11:48:16;6.10;;;3.90;;
51525;SDS011;37611;51.794;21.590;2023-05-02T11:52:21;5.50;;;3.10;;
51525;SDS011;37611;51.794;21.590;2023-05-02T11:56:23;4.60;;;3.90;;
51525;SDS011;37611;51.794;21.590;2023-05-02T12:00:26;5.00;;;3.50;;
51525;SDS011;37611;51.794;21.590;2023-05-02T12:04:28;9.80;;;4.00;;
51525;SDS011;37611;51.794;21.590;2023-05-02T12:08:30;6.30;;;3.80;;
51525;SDS011;37611;51.794;21.590;2023-05-02T12:12:32;6.20;;;4.00;;
51525;SDS011;37611;51.794;21.590;2023-05-02T12:16:33;5.80;;;4.10;;
51525;SDS011;37611;51.794;21.590;2023-05-02T12:20:36;8.10;;;3.80;;
51525;SDS011;37611;51.794;21.590;2023-05-02T12:24:38;5.60;;;3.60;;
51525;SDS011;37611;51.794;21.590;2023-05-02T12:28:48;7.50;;;3.30;;
51525;SDS011;37611;51.794;21.590;2023-05-02T12:32:58;5.90;;;3.80;;
51525;SDS011;37611;51.794;21.590;2023-05-02T12:37:04;5.30;;;3.70;;
51525;SDS011;37611;51.794;21.590;2023-05-02T12:41:07;6.10;;;3.60;;
51525;SDS011;37611;51.794;21.590;2023-05-02T12:45:16;5.40;;;3.70;;
51525;SDS011;37611;51.794;21.590;2023-05-02T12:49:18;6.00;;;4.70;;
51525;SDS011;37611;51.794;21.590;2023-05-02T12:57:44;5.90;;;3.90;;
51525;SDS011;37611;51.794;21.590;2023-05-02T13:01:46;7.00;;;4.40;;
51525;SDS011;37611;51.794;21.590;2023-05-02T13:05:52;8.60;;;4.70;;
51525;SDS011;37611;51.794;21.590;2023-05-02T13:09:54;22.40;;;5.90;;
51525;SDS011;37611;51.794;21.590;2023-05-02T13:13:56;8.40;;;4.80;;
51525;SDS011;37611;51.794;21.590;2023-05-02T13:18:00;6.00;;;4.40;;
51525;SDS011;37611;51.794;21.590;2023-05-02T13:22:02;5.60;;;4.70;;
51525;SDS011;37611;51.794;21.590;2023-05-02T13:26:03;5.20;;;4.70;;
51525;SDS011;37611;51.794;21.590;2023-05-02T13:30:06;8.20;;;4.10;;
51525;SDS011;37611;51.794;21.590;2023-05-02T13:34:08;10.10;;;3.80;;
51525;SDS011;37611;51.794;21.590;2023-05-02T13:38:12;5.40;;;3.90;;
51525;SDS011;37611;51.794;21.590;2023-05-02T13:42:13;5.60;;;3.50;;
51525;SDS011;37611;51.794;21.590;2023-05-02T13:46:15;6.50;;;3.70;;
51525;SDS011;37611;51.794;21.590;2023-05-02T13:50:17;4.10;;;3.20;;
51525;SDS011;37611;51.794;21.590;2023-05-02T13:54:19;5.70;;;3.80;;
51525;SDS011;37611;51.794;21.590;2023-05-02T13:58:22;5.00;;;3.80;;
51525;SDS011;37611;51.794;21.590;2023-05-02T14:02:23;5.10;;;3.10;;
51525;SDS011;37611;51.794;21.590;2023-05-02T14:06:25;4.90;;;2.80;;
51525;SDS011;37611;51.794;21.590;2023-05-02T14:10:27;4.60;;;3.10;;
51525;SDS011;37611;51.794;21.590;2023-05-02T14:14:29;4.40;;;2.70;;
51525;SDS011;37611;51.794;21.590;2023-05-02T14:18:30;4.90;;;2.60;;
51525;SDS011;37611;51.794;21.590;2023-05-02T14:22:32;6.70;;;2.90;;
51525;SDS011;37611;51.794;21.590;2023-05-02T14:26:34;4.70;;;3.50;;
51525;SDS011;37611;51.794;21.590;2023-05-02T14:30:36;4.60;;;2.70;;
51525;SDS011;37611;51.794;21.590;2023-05-02T14:34:38;7.40;;;3.30;;
51525;SDS011;37611;51.794;21.590;2023-05-02T14:38:40;3.70;;;3.00;;
51525;SDS011;37611;51.794;21.590;2023-05-02T14:42:42;4.80;;;3.90;;
51525;SDS011;37611;51.794;21.590;2023-05-02T14:46:44;5.20;;;4.00;;
51525;SDS011;37611;51.794;21.590;2023-05-02T14:50:46;7.90;;;3.60;;
51525;SDS011;37611;51.794;21.590;2023-05-02T14:54:47;4.80;;;4.30;;
51525;SDS011;37611;51.794;21.590;2023-05-02T14:58:49;4.10;;;3.50;;
51525;SDS011;37611;51.794;21.590;2023-05-02T15:02:51;11.40;;;8.60;;
51525;SDS011;37611;51.794;21.590;2023-05-02T15:06:53;12.10;;;6.50;;
51525;SDS011;37611;51.794;21.590;2023-05-02T15:10:55;9.60;;;8.60;;
51525;SDS011;37611;51.794;21.590;2023-05-02T15:14:57;7.90;;;4.00;;
51525;SDS011;37611;51.794;21.590;2023-05-02T15:18:59;4.30;;;3.70;;
51525;SDS011;37611;51.794;21.590;2023-05-02T15:23:01;5.30;;;4.20;;
51525;SDS011;37611;51.794;21.590;2023-05-02T15:27:03;7.30;;;5.90;;
51525;SDS011;37611;51.794;21.590;2023-05-02T15:31:05;5.10;;;3.70;;
51525;SDS011;37611;51.794;21.590;2023-05-02T15:35:07;8.20;;;6.60;;
51525;SDS011;37611;51.794;21.590;2023-05-02T15:39:09;10.40;;;6.20;;
51525;SDS011;37611;51.794;21.590;2023-05-02T15:43:11;5.70;;;4.50;;
51525;SDS011;37611;51.794;21.590;2023-05-02T15:47:13;8.30;;;4.00;;
51525;SDS011;37611;51.794;21.590;2023-05-02T15:51:14;4.70;;;3.50;;
51525;SDS011;37611;51.794;21.590;2023-05-02T15:55:16;7.20;;;3.90;;
51525;SDS011;37611;51.794;21.590;2023-05-02T15:59:18;8.10;;;5.10;;
51525;SDS011;37611;51.794;21.590;2023-05-02T16:03:20;5.20;;;3.90;;
51525;SDS011;37611;51.794;21.590;2023-05-02T16:07:21;12.10;;;8.40;;
51525;SDS011;37611;51.794;21.590;2023-05-02T16:11:23;14.40;;;12.80;;
51525;SDS011;37611;51.794;21.590;2023-05-02T16:15:25;5.80;;;5.20;;
51525;SDS011;37611;51.794;21.590;2023-05-02T16:19:27;8.60;;;6.70;;
51525;SDS011;37611;51.794;21.590;2023-05-02T16:23:29;15.20;;;10.80;;
51525;SDS011;37611;51.794;21.590;2023-05-02T16:27:31;6.80;;;5.50;;
51525;SDS011;37611;51.794;21.590;2023-05-02T16:31:33;11.90;;;9.30;;
51525;SDS011;37611;51.794;21.590;2023-05-02T16:35:36;10.10;;;7.70;;
51525;SDS011;37611;51.794;21.590;2023-05-02T16:39:38;7.10;;;5.90;;
51525;SDS011;37611;51.794;21.590;2023-05-02T16:43:40;14.60;;;8.10;;
51525;SDS011;37611;51.794;21.590;2023-05-02T16:47:42;14.30;;;9.20;;
51525;SDS011;37611;51.794;21.590;2023-05-02T16:51:43;12.40;;;8.90;;
51525;SDS011;37611;51.794;21.590;2023-05-02T16:55:45;12.70;;;9.50;;
51525;SDS011;37611;51.794;21.590;2023-05-02T16:59:47;7.90;;;6.90;;
51525;SDS011;37611;51.794;21.590;2023-05-02T17:03:50;8.30;;;6.60;;
51525;SDS011;37611;51.794;21.590;2023-05-02T17:07:52;7.20;;;5.90;;
51525;SDS011;37611;51.794;21.590;2023-05-02T17:11:54;11.20;;;6.60;;
51525;SDS011;37611;51.794;21.590;2023-05-02T17:15:55;15.80;;;12.70;;
51525;SDS011;37611;51.794;21.590;2023-05-02T17:19:58;13.20;;;10.00;;
51525;SDS011;37611;51.794;21.590;2023-05-02T17:24:00;15.50;;;11.30;;
51525;SDS011;37611;51.794;21.590;2023-05-02T17:28:02;19.20;;;12.70;;
51525;SDS011;37611;51.794;21.590;2023-05-02T17:32:05;15.10;;;9.40;;
51525;SDS011;37611;51.794;21.590;2023-05-02T17:36:07;19.10;;;14.50;;
51525;SDS011;37611;51.794;21.590;2023-05-02T17:40:09;19.70;;;15.70;;
51525;SDS011;37611;51.794;21.590;2023-05-02T17:44:11;17.80;;;11.60;;
51525;SDS011;37611;51.794;21.590;2023-05-02T17:48:13;15.50;;;11.60;;
51525;SDS011;37611;51.794;21.590;2023-05-02T17:52:14;20.30;;;9.60;;
51525;SDS011;37611;51.794;21.590;2023-05-02T17:56:16;45.90;;;16.60;;
51525;SDS011;37611;51.794;21.590;2023-05-02T18:00:19;25.70;;;11.90;;
51525;SDS011;37611;51.794;21.590;2023-05-02T18:04:21;38.20;;;22.80;;
51525;SDS011;37611;51.794;21.590;2023-05-02T18:08:23;34.80;;;14.70;;
51525;SDS011;37611;51.794;21.590;2023-05-02T18:12:24;27.40;;;9.90;;
51525;SDS011;37611;51.794;21.590;2023-05-02T18:16:26;11.70;;;5.50;;
51525;SDS011;37611;51.794;21.590;2023-05-02T18:20:28;16.20;;;10.40;;
51525;SDS011;37611;51.794;21.590;2023-05-02T18:24:30;45.50;;;25.90;;
51525;SDS011;37611;51.794;21.590;2023-05-02T18:28:32;43.40;;;30.90;;
51525;SDS011;37611;51.794;21.590;2023-05-02T18:32:34;34.50;;;28.00;;
51525;SDS011;37611;51.794;21.590;2023-05-02T18:36:36;39.00;;;31.90;;
51525;SDS011;37611;51.794;21.590;2023-05-02T18:40:39;41.70;;;31.40;;
51525;SDS011;37611;51.794;21.590;2023-05-02T18:44:41;41.90;;;31.70;;
51525;SDS011;37611;51.794;21.590;2023-05-02T18:48:43;37.90;;;29.60;;
51525;SDS011;37611;51.794;21.590;2023-05-02T18:52:45;43.80;;;31.80;;
51525;SDS011;37611;51.794;21.590;2023-05-02T18:56:46;42.50;;;33.40;;
51525;SDS011;37611;51.794;21.590;2023-05-02T19:00:48;43.90;;;33.50;;
51525;SDS011;37611;51.794;21.590;2023-05-02T19:04:51;60.50;;;43.30;;
51525;SDS011;37611;51.794;21.590;2023-05-02T19:08:52;60.70;;;44.60;;
51525;SDS011;37611;51.794;21.590;2023-05-02T19:12:54;46.30;;;38.10;;
51525;SDS011;37611;51.794;21.590;2023-05-02T19:16:56;40.10;;;33.80;;
51525;SDS011;37611;51.794;21.590;2023-05-02T19:20:58;44.70;;;32.80;;
51525;SDS011;37611;51.794;21.590;2023-05-02T19:25:00;35.30;;;24.60;;
51525;SDS011;37611;51.794;21.590;2023-05-02T19:29:02;33.50;;;27.30;;
51525;SDS011;37611;51.794;21.590;2023-05-02T19:33:03;34.50;;;27.20;;
51525;SDS011;37611;51.794;21.590;2023-05-02T19:37:05;37.70;;;27.00;;
51525;SDS011;37611;51.794;21.590;2023-05-02T19:41:08;35.30;;;28.00;;
51525;SDS011;37611;51.794;21.590;2023-05-02T19:45:10;35.70;;;25.20;;
51525;SDS011;37611;51.794;21.590;2023-05-02T19:49:13;51.40;;;36.20;;
51525;SDS011;37611;51.794;21.590;2023-05-02T19:53:15;49.30;;;35.00;;
51525;SDS011;37611;51.794;21.590;2023-05-02T19:57:17;42.80;;;34.50;;
51525;SDS011;37611;51.794;21.590;2023-05-02T20:01:19;43.00;;;31.60;;
51525;SDS011;37611;51.794;21.590;2023-05-02T20:05:21;32.20;;;24.80;;
51525;SDS011;37611;51.794;21.590;2023-05-02T20:09:23;23.70;;;19.80;;
51525;SDS011;37611;51.794;21.590;2023-05-02T20:13:25;28.30;;;20.40;;
51525;SDS011;37611;51.794;21.590;2023-05-02T20:17:31;24.20;;;19.50;;
51525;SDS011;37611;51.794;21.590;2023-05-02T20:21:33;28.70;;;22.40;;
51525;SDS011;37611;51.794;21.590;2023-05-02T20:25:35;29.60;;;25.00;;
51525;SDS011;37611;51.794;21.590;2023-05-02T20:29:37;44.20;;;34.50;;
51525;SDS011;37611;51.794;21.590;2023-05-02T20:33:39;50.80;;;41.70;;
51525;SDS011;37611;51.794;21.590;2023-05-02T20:37:41;43.00;;;33.30;;
51525;SDS011;37611;51.794;21.590;2023-05-02T20:41:42;53.50;;;43.30;;
51525;SDS011;37611;51.794;21.590;2023-05-02T20:45:45;56.60;;;45.10;;
51525;SDS011;37611;51.794;21.590;2023-05-02T20:49:47;49.30;;;42.00;;
51525;SDS011;37611;51.794;21.590;2023-05-02T20:53:49;41.90;;;34.90;;
51525;SDS011;37611;51.794;21.590;2023-05-02T20:57:51;35.70;;;24.30;;
51525;SDS011;37611;51.794;21.590;2023-05-02T21:01:53;27.10;;;21.10;;
51525;SDS011;37611;51.794;21.590;2023-05-02T21:05:55;33.30;;;23.10;;
51525;SDS011;37611;51.794;21.590;2023-05-02T21:09:59;27.30;;;20.40;;
51525;SDS011;37611;51.794;21.590;2023-05-02T21:14:01;33.20;;;21.60;;
51525;SDS011;37611;51.794;21.590;2023-05-02T21:18:03;27.20;;;17.70;;
51525;SDS011;37611;51.794;21.590;2023-05-02T21:22:06;21.20;;;15.50;;
51525;SDS011;37611;51.794;21.590;2023-05-02T21:26:07;20.30;;;13.60;;
51525;SDS011;37611;51.794;21.590;2023-05-02T21:30:10;16.30;;;12.90;;
51525;SDS011;37611;51.794;21.590;2023-05-02T21:34:12;16.80;;;12.60;;
51525;SDS011;37611;51.794;21.590;2023-05-02T21:38:14;19.20;;;12.70;;
51525;SDS011;37611;51.794;21.590;2023-05-02T21:42:16;13.80;;;12.00;;
51525;SDS011;37611;51.794;21.590;2023-05-02T21:46:17;14.50;;;11.90;;
51525;SDS011;37611;51.794;21.590;2023-05-02T21:50:19;14.70;;;12.80;;
51525;SDS011;37611;51.794;21.590;2023-05-02T21:54:21;14.70;;;11.90;;
51525;SDS011;37611;51.794;21.590;2023-05-02T21:58:23;14.50;;;11.60;;
51525;SDS011;37611;51.794;21.590;2023-05-02T22:02:27;18.20;;;12.30;;
51525;SDS011;37611;51.794;21.590;2023-05-02T22:06:29;15.40;;;11.70;;
51525;SDS011;37611;51.794;21.590;2023-05-02T22:10:33;15.90;;;11.20;;
51525;SDS011;37611;51.794;21.590;2023-05-02T22:14:37;12.80;;;10.40;;
51525;SDS011;37611;51.794;21.590;2023-05-02T22:18:39;15.50;;;10.30;;
51525;SDS011;37611;51.794;21.590;2023-05-02T22:22:40;13.00;;;10.00;;
51525;SDS011;37611;51.794;21.590;2023-05-02T22:26:42;12.20;;;10.10;;
51525;SDS011;37611;51.794;21.590;2023-05-02T22:30:44;11.80;;;9.90;;
51525;SDS011;37611;51.794;21.590;2023-05-02T22:34:46;13.90;;;10.00;;
51525;SDS011;37611;51.794;21.590;2023-05-02T22:38:48;15.00;;;9.60;;
51525;SDS011;37611;51.794;21.590;2023-05-02T22:42:50;10.70;;;9.60;;
51525;SDS011;37611;51.794;21.590;2023-05-02T22:46:51;12.20;;;9.00;;
51525;SDS011;37611;51.794;21.590;2023-05-02T22:50:53;12.90;;;9.50;;
51525;SDS011;37611;51.794;21.590;2023-05-02T22:54:55;14.70;;;8.80;;
51525;SDS011;37611;51.794;21.590;2023-05-02T22:58:58;13.90;;;9.40;;
51525;SDS011;37611;51.794;21.590;2023-05-02T23:03:00;10.80;;;9.00;;
51525;SDS011;37611;51.794;21.590;2023-05-02T23:07:02;14.00;;;8.90;;
51525;SDS011;37611;51.794;21.590;2023-05-02T23:11:04;12.10;;;9.50;;
51525;SDS011;37611;51.794;21.590;2023-05-02T23:15:06;9.90;;;8.60;;
51525;SDS011;37611;51.794;21.590;2023-05-02T23:19:09;11.60;;;9.20;;
51525;SDS011;37611;51.794;21.590;2023-05-02T23:23:14;13.80;;;9.40;;
51525;SDS011;37611;51.794;21.590;2023-05-02T23:27:16;11.30;;;8.70;;
51525;SDS011;37611;51.794;21.590;2023-05-02T23:31:18;11.50;;;8.60;;
51525;SDS011;37611;51.794;21.590;2023-05-02T23:35:20;9.70;;;8.50;;
51525;SDS011;37611;51.794;21.590;2023-05-02T23:39:21;11.40;;;9.10;;
51525;SDS011;37611;51.794;21.590;2023-05-02T23:43:24;10.50;;;8.20;;
51525;SDS011;37611;51.794;21.590;2023-05-02T23:47:26;11.60;;;9.20;;
51525;SDS011;37611;51.794;21.590;2023-05-02T23:51:28;10.60;;;8.60;;
51525;SDS011;37611;51.794;21.590;2023-05-02T23:55:32;11.00;;;9.20;;
51525;SDS011;37611;51.794;21.590;2023-05-02T23:59:33;9.60;;;8.60;;
